createdAt,value
2022-10-19T00:00:01.889Z,22.38
2022-10-19T00:00:17.680Z,22.38
2022-10-19T00:00:33.191Z,22.38
2022-10-19T00:00:52.702Z,22.38
2022-10-19T00:01:06.750Z,22.38
2022-10-19T00:01:21.757Z,22.38
2022-10-19T00:01:39.889Z,22.38
2022-10-19T00:01:53.850Z,22.38
2022-10-19T00:02:09.271Z,22.38
2022-10-19T00:02:24.812Z,22.38
2022-10-19T00:02:41.248Z,22.38
2022-10-19T00:02:56.547Z,22.38
2022-10-19T00:03:16.412Z,22.37
2022-10-19T00:03:29.516Z,22.38
2022-10-19T00:03:45.646Z,22.37
2022-10-19T00:04:03.529Z,22.38
2022-10-19T00:04:19.731Z,22.38
2022-10-19T00:04:33.762Z,22.38
2022-10-19T00:04:49.825Z,22.37
2022-10-19T00:05:06.004Z,22.37
2022-10-19T00:05:21.137Z,22.37
2022-10-19T00:05:37.722Z,22.37
2022-10-19T00:05:52.647Z,22.37
2022-10-19T00:06:09.278Z,22.37
2022-10-19T00:06:26.058Z,22.37
2022-10-19T00:06:41.884Z,22.36
2022-10-19T00:06:58.970Z,22.36
2022-10-19T00:07:14.401Z,22.36
2022-10-19T00:07:29.722Z,22.36
2022-10-19T00:07:44.510Z,22.36
2022-10-19T00:08:01.316Z,22.36
2022-10-19T00:08:18.563Z,22.36
2022-10-19T00:08:33.581Z,22.36
2022-10-19T00:08:48.813Z,22.36
2022-10-19T00:09:06.241Z,22.36
2022-10-19T00:09:22.589Z,22.36
2022-10-19T00:09:37.553Z,22.36
2022-10-19T00:09:53.462Z,22.36
2022-10-19T00:10:10.170Z,22.36
2022-10-19T00:10:25.485Z,22.36
2022-10-19T00:10:41.339Z,22.36
2022-10-19T00:10:57.650Z,22.36
2022-10-19T00:11:13.052Z,22.36
2022-10-19T00:11:29.964Z,22.36
2022-10-19T00:11:45.689Z,22.36
2022-10-19T00:12:01.702Z,22.36
2022-10-19T00:12:20.209Z,22.36
2022-10-19T00:12:35.368Z,22.36
2022-10-19T00:12:50.262Z,22.36
2022-10-19T00:13:06.333Z,22.36
2022-10-19T00:13:21.595Z,22.36
2022-10-19T00:13:37.093Z,22.36
2022-10-19T00:13:56.425Z,22.36
2022-10-19T00:14:11.477Z,22.36
2022-10-19T00:14:26.140Z,22.36
2022-10-19T00:14:43.849Z,22.36
2022-10-19T00:14:57.562Z,22.35
2022-10-19T00:15:12.897Z,22.36
2022-10-19T00:15:30.375Z,22.36
2022-10-19T00:15:44.995Z,22.35
2022-10-19T00:16:01.943Z,22.35
2022-10-19T00:16:17.301Z,22.35
2022-10-19T00:16:33.366Z,22.35
2022-10-19T00:16:50.856Z,22.35
2022-10-19T00:17:05.519Z,22.35
2022-10-19T00:17:22.980Z,22.35
2022-10-19T00:17:37.170Z,22.35
2022-10-19T00:17:53.738Z,22.35
2022-10-19T00:18:09.873Z,22.35
2022-10-19T00:18:27.479Z,22.35
2022-10-19T00:18:42.472Z,22.34
2022-10-19T00:18:56.857Z,22.34
2022-10-19T00:19:13.189Z,22.34
2022-10-19T00:19:28.777Z,22.34
2022-10-19T00:19:45.611Z,22.34
2022-10-19T00:20:03.761Z,22.34
2022-10-19T00:20:18.146Z,22.34
2022-10-19T00:20:33.441Z,22.34
2022-10-19T00:20:50.031Z,22.34
2022-10-19T00:21:06.464Z,22.34
2022-10-19T00:21:24.363Z,22.34
2022-10-19T00:21:37.706Z,22.34
2022-10-19T00:21:53.836Z,22.34
2022-10-19T00:22:13.040Z,22.34
2022-10-19T00:22:27.174Z,22.34
2022-10-19T00:22:41.926Z,22.34
2022-10-19T00:22:57.196Z,22.34
2022-10-19T00:23:14.486Z,22.34
2022-10-19T00:23:30.370Z,22.34
2022-10-19T00:23:49.357Z,22.34
2022-10-19T00:24:04.344Z,22.34
2022-10-19T00:24:17.265Z,22.34
2022-10-19T00:24:33.716Z,22.34
2022-10-19T00:24:48.616Z,22.34
2022-10-19T00:25:07.351Z,22.34
2022-10-19T00:25:20.916Z,22.34
2022-10-19T00:25:39.033Z,22.34
2022-10-19T00:25:53.519Z,22.34
2022-10-19T00:26:11.292Z,22.34
2022-10-19T00:26:27.111Z,22.34
2022-10-19T00:26:40.321Z,22.34
2022-10-19T00:26:57.398Z,22.34
2022-10-19T00:27:13.146Z,22.34
2022-10-19T00:27:29.426Z,22.34
2022-10-19T00:27:44.794Z,22.34
2022-10-19T00:28:01.216Z,22.34
2022-10-19T00:28:17.293Z,22.33
2022-10-19T00:28:33.433Z,22.33
2022-10-19T00:28:49.501Z,22.33
2022-10-19T00:29:06.272Z,22.33
2022-10-19T00:29:23.018Z,22.33
2022-10-19T00:29:38.478Z,22.33
2022-10-19T00:29:53.835Z,22.33
2022-10-19T00:30:09.061Z,22.33
2022-10-19T00:30:28.397Z,22.32
2022-10-19T00:30:44.709Z,22.32
2022-10-19T00:30:57.997Z,22.32
2022-10-19T00:31:14.550Z,22.32
2022-10-19T00:31:30.960Z,22.32
2022-10-19T00:31:44.935Z,22.32
2022-10-19T00:32:03.537Z,22.32
2022-10-19T00:32:17.034Z,22.32
2022-10-19T00:32:32.842Z,22.32
2022-10-19T00:32:49.599Z,22.32
2022-10-19T00:33:04.730Z,22.32
2022-10-19T00:33:22.973Z,22.32
2022-10-19T00:33:37.513Z,22.32
2022-10-19T00:33:53.535Z,22.32
2022-10-19T00:34:09.156Z,22.32
2022-10-19T00:34:26.428Z,22.32
2022-10-19T00:34:41.331Z,22.32
2022-10-19T00:34:56.862Z,22.32
2022-10-19T00:35:13.639Z,22.32
2022-10-19T00:35:29.384Z,22.32
2022-10-19T00:35:45.723Z,22.32
2022-10-19T00:36:01.072Z,22.32
2022-10-19T00:36:19.391Z,22.32
2022-10-19T00:36:33.238Z,22.32
2022-10-19T00:37:04.806Z,22.32
2022-10-19T00:37:22.074Z,22.32
2022-10-19T00:37:37.695Z,22.32
2022-10-19T00:37:53.016Z,22.32
2022-10-19T00:38:09.627Z,22.32
2022-10-19T00:38:25.255Z,22.32
2022-10-19T00:38:41.287Z,22.32
2022-10-19T00:38:58.589Z,22.32
2022-10-19T00:39:15.349Z,22.32
2022-10-19T00:39:30.709Z,22.32
2022-10-19T00:39:46.179Z,22.32
2022-10-19T00:40:01.593Z,22.32
2022-10-19T00:40:18.244Z,22.32
2022-10-19T00:40:33.192Z,22.31
2022-10-19T00:40:49.264Z,22.31
2022-10-19T00:41:05.346Z,22.31
2022-10-19T00:41:21.377Z,22.31
2022-10-19T00:41:40.394Z,22.32
2022-10-19T00:41:52.859Z,22.32
2022-10-19T00:42:10.201Z,22.32
2022-10-19T00:42:24.902Z,22.32
2022-10-19T00:42:44.976Z,22.32
2022-10-19T00:42:56.959Z,22.31
2022-10-19T00:43:13.088Z,22.31
2022-10-19T00:43:30.626Z,22.31
2022-10-19T00:43:45.299Z,22.31
2022-10-19T00:44:01.627Z,22.31
2022-10-19T00:44:19.805Z,22.31
2022-10-19T00:44:33.373Z,22.31
2022-10-19T00:44:49.660Z,22.31
2022-10-19T00:45:05.609Z,22.31
2022-10-19T00:45:23.024Z,22.3
2022-10-19T00:45:38.470Z,22.3
2022-10-19T00:45:53.317Z,22.3
2022-10-19T00:46:10.345Z,22.3
2022-10-19T00:46:25.716Z,22.3
2022-10-19T00:46:40.573Z,22.3
2022-10-19T00:46:57.380Z,22.3
2022-10-19T00:47:12.831Z,22.3
2022-10-19T00:47:30.696Z,22.3
2022-10-19T00:47:47.316Z,22.3
2022-10-19T00:48:02.122Z,22.3
2022-10-19T00:48:19.620Z,22.3
2022-10-19T00:48:32.920Z,22.3
2022-10-19T00:48:50.891Z,22.3
2022-10-19T00:49:05.943Z,22.3
2022-10-19T00:49:21.944Z,22.3
2022-10-19T00:49:37.454Z,22.3
2022-10-19T00:49:53.569Z,22.3
2022-10-19T00:50:09.051Z,22.3
2022-10-19T00:50:26.658Z,22.3
2022-10-19T00:50:40.993Z,22.3
2022-10-19T00:50:58.160Z,22.3
2022-10-19T00:51:13.187Z,22.3
2022-10-19T00:51:28.652Z,22.3
2022-10-19T00:51:45.991Z,22.3
2022-10-19T00:52:01.307Z,22.3
2022-10-19T00:52:19.207Z,22.3
2022-10-19T00:52:33.179Z,22.3
2022-10-19T00:52:50.144Z,22.3
2022-10-19T00:53:05.387Z,22.3
2022-10-19T00:53:22.828Z,22.3
2022-10-19T00:53:37.742Z,22.3
2022-10-19T00:53:52.446Z,22.3
2022-10-19T00:54:09.763Z,22.3
2022-10-19T00:54:26.568Z,22.29
2022-10-19T00:54:41.284Z,22.29
2022-10-19T00:54:57.176Z,22.29
2022-10-19T00:55:15.017Z,22.29
2022-10-19T00:55:30.804Z,22.29
2022-10-19T00:55:46.774Z,22.29
2022-10-19T00:56:01.214Z,22.29
2022-10-19T00:56:18.933Z,22.29
2022-10-19T00:56:34.687Z,22.29
2022-10-19T00:56:48.838Z,22.29
2022-10-19T00:57:05.713Z,22.29
2022-10-19T00:57:21.232Z,22.29
2022-10-19T00:57:39.264Z,22.29
2022-10-19T00:57:52.719Z,22.29
2022-10-19T00:58:09.272Z,22.29
2022-10-19T00:58:25.211Z,22.28
2022-10-19T00:58:43.226Z,22.28
2022-10-19T00:58:57.607Z,22.29
2022-10-19T00:59:13.114Z,22.29
2022-10-19T00:59:29.063Z,22.28
2022-10-19T00:59:45.262Z,22.29
2022-10-19T01:00:01.284Z,22.28
2022-10-19T01:00:16.572Z,22.28
2022-10-19T01:00:33.801Z,22.29
2022-10-19T01:00:49.118Z,22.28
2022-10-19T01:01:05.626Z,22.28
2022-10-19T01:01:21.689Z,22.27
2022-10-19T01:01:37.473Z,22.27
2022-10-19T01:01:53.764Z,22.28
2022-10-19T01:02:08.340Z,22.28
2022-10-19T01:02:25.430Z,22.28
2022-10-19T01:02:40.482Z,22.28
2022-10-19T01:02:57.226Z,22.27
2022-10-19T01:03:13.284Z,22.27
2022-10-19T01:03:29.982Z,22.27
2022-10-19T01:03:45.312Z,22.27
2022-10-19T01:04:01.603Z,22.27
2022-10-19T01:04:17.389Z,22.27
2022-10-19T01:04:33.622Z,22.27
2022-10-19T01:04:49.243Z,22.27
2022-10-19T01:05:04.674Z,22.27
2022-10-19T01:05:22.622Z,22.27
2022-10-19T01:05:39.313Z,22.27
2022-10-19T01:05:53.491Z,22.27
2022-10-19T01:06:09.442Z,22.27
2022-10-19T01:06:25.359Z,22.27
2022-10-19T01:06:42.401Z,22.27
2022-10-19T01:06:57.900Z,22.27
2022-10-19T01:07:13.471Z,22.27
2022-10-19T01:07:28.205Z,22.27
2022-10-19T01:07:45.025Z,22.27
2022-10-19T01:08:01.036Z,22.27
2022-10-19T01:08:18.699Z,22.27
2022-10-19T01:08:32.611Z,22.27
2022-10-19T01:08:50.040Z,22.27
2022-10-19T01:09:05.369Z,22.27
2022-10-19T01:09:21.790Z,22.27
2022-10-19T01:09:36.813Z,22.27
2022-10-19T01:09:53.916Z,22.27
2022-10-19T01:10:09.501Z,22.27
2022-10-19T01:10:27.652Z,22.27
2022-10-19T01:10:41.774Z,22.27
2022-10-19T01:10:57.050Z,22.27
2022-10-19T01:11:13.824Z,22.27
2022-10-19T01:11:28.698Z,22.27
2022-10-19T01:11:45.571Z,22.27
2022-10-19T01:12:01.238Z,22.27
2022-10-19T01:12:17.686Z,22.27
2022-10-19T01:12:32.766Z,22.26
2022-10-19T01:12:48.850Z,22.26
2022-10-19T01:13:05.260Z,22.26
2022-10-19T01:13:20.788Z,22.26
2022-10-19T01:13:37.843Z,22.26
2022-10-19T01:13:52.761Z,22.26
2022-10-19T01:14:09.170Z,22.26
2022-10-19T01:14:25.201Z,22.26
2022-10-19T01:14:41.447Z,22.26
2022-10-19T01:14:59.300Z,22.26
2022-10-19T01:15:13.460Z,22.26
2022-10-19T01:15:28.818Z,22.26
2022-10-19T01:15:44.780Z,22.26
2022-10-19T01:16:01.286Z,22.26
2022-10-19T01:16:16.623Z,22.26
2022-10-19T01:16:33.615Z,22.25
2022-10-19T01:16:50.655Z,22.25
2022-10-19T01:17:06.086Z,22.25
2022-10-19T01:17:21.599Z,22.25
2022-10-19T01:17:38.182Z,22.25
2022-10-19T01:17:52.867Z,22.25
2022-10-19T01:18:08.079Z,22.25
2022-10-19T01:18:25.658Z,22.25
2022-10-19T01:18:40.870Z,22.25
2022-10-19T01:18:58.498Z,22.25
2022-10-19T01:19:13.142Z,22.25
2022-10-19T01:19:29.293Z,22.25
2022-10-19T01:19:45.050Z,22.25
2022-10-19T01:20:01.652Z,22.25
2022-10-19T01:20:16.963Z,22.25
2022-10-19T01:20:33.697Z,22.25
2022-10-19T01:20:48.956Z,22.25
2022-10-19T01:21:06.213Z,22.25
2022-10-19T01:21:22.350Z,22.25
2022-10-19T01:21:36.666Z,22.25
2022-10-19T01:21:53.745Z,22.25
2022-10-19T01:22:08.359Z,22.25
2022-10-19T01:22:26.854Z,22.25
2022-10-19T01:22:41.415Z,22.25
2022-10-19T01:22:58.489Z,22.25
2022-10-19T01:23:13.376Z,22.25
2022-10-19T01:23:31.407Z,22.25
2022-10-19T01:23:47.635Z,22.25
2022-10-19T01:24:00.264Z,22.25
2022-10-19T01:24:17.162Z,22.25
2022-10-19T01:24:35.879Z,22.25
2022-10-19T01:24:49.560Z,22.25
2022-10-19T01:25:04.580Z,22.25
2022-10-19T01:25:21.293Z,22.25
2022-10-19T01:25:37.153Z,22.25
2022-10-19T01:25:53.286Z,22.25
2022-10-19T01:26:09.057Z,22.25
2022-10-19T01:26:24.212Z,22.24
2022-10-19T01:26:43.630Z,22.24
2022-10-19T01:26:57.010Z,22.24
2022-10-19T01:27:13.114Z,22.24
2022-10-19T01:27:30.221Z,22.24
2022-10-19T01:28:01.083Z,22.24
2022-10-19T01:28:17.886Z,22.24
2022-10-19T01:28:33.202Z,22.23
2022-10-19T01:28:50.000Z,22.24
2022-10-19T01:29:04.994Z,22.24
2022-10-19T01:29:20.658Z,22.23
2022-10-19T01:29:38.729Z,22.23
2022-10-19T01:29:54.118Z,22.23
2022-10-19T01:30:12.269Z,22.23
2022-10-19T01:30:24.905Z,22.23
2022-10-19T01:30:41.830Z,22.23
2022-10-19T01:30:58.146Z,22.23
2022-10-19T01:31:13.620Z,22.23
2022-10-19T01:31:29.225Z,22.23
2022-10-19T01:31:44.454Z,22.23
2022-10-19T01:32:00.945Z,22.23
2022-10-19T01:32:17.023Z,22.23
2022-10-19T01:32:33.040Z,22.23
2022-10-19T01:32:50.513Z,22.23
2022-10-19T01:33:06.938Z,22.23
2022-10-19T01:33:21.102Z,22.23
2022-10-19T01:33:37.506Z,22.23
2022-10-19T01:33:53.307Z,22.23
2022-10-19T01:34:09.310Z,22.23
2022-10-19T01:34:24.846Z,22.23
2022-10-19T01:34:40.654Z,22.23
2022-10-19T01:34:57.254Z,22.23
2022-10-19T01:35:12.409Z,22.23
2022-10-19T01:35:30.459Z,22.23
2022-10-19T01:35:45.023Z,22.22
2022-10-19T01:36:01.733Z,22.22
2022-10-19T01:36:16.513Z,22.22
2022-10-19T01:36:33.786Z,22.22
2022-10-19T01:36:49.375Z,22.22
2022-10-19T01:37:05.976Z,22.22
2022-10-19T01:37:21.185Z,22.22
2022-10-19T01:37:36.890Z,22.22
2022-10-19T01:37:53.213Z,22.22
2022-10-19T01:38:09.045Z,22.22
2022-10-19T01:38:26.020Z,22.21
2022-10-19T01:38:40.606Z,22.21
2022-10-19T01:38:57.189Z,22.22
2022-10-19T01:39:13.101Z,22.22
2022-10-19T01:39:30.080Z,22.22
2022-10-19T01:39:47.744Z,22.21
2022-10-19T01:40:02.048Z,22.21
2022-10-19T01:40:17.325Z,22.21
2022-10-19T01:40:33.579Z,22.21
2022-10-19T01:40:53.622Z,22.21
2022-10-19T01:41:06.564Z,22.21
2022-10-19T01:41:21.505Z,22.21
2022-10-19T01:41:36.747Z,22.21
2022-10-19T01:41:53.308Z,22.21
2022-10-19T01:42:09.285Z,22.21
2022-10-19T01:42:25.954Z,22.21
2022-10-19T01:42:41.502Z,22.21
2022-10-19T01:42:56.565Z,22.21
2022-10-19T01:43:13.285Z,22.21
2022-10-19T01:43:28.581Z,22.21
2022-10-19T01:43:45.636Z,22.21
2022-10-19T01:44:01.114Z,22.21
2022-10-19T01:44:18.387Z,22.21
2022-10-19T01:44:34.012Z,22.21
2022-10-19T01:44:49.343Z,22.21
2022-10-19T01:45:06.042Z,22.21
2022-10-19T01:45:20.107Z,22.21
2022-10-19T01:45:38.252Z,22.2
2022-10-19T01:45:52.855Z,22.21
2022-10-19T01:46:10.392Z,22.2
2022-10-19T01:46:24.418Z,22.2
2022-10-19T01:46:41.893Z,22.2
2022-10-19T01:46:56.914Z,22.2
2022-10-19T01:47:13.814Z,22.2
2022-10-19T01:47:28.747Z,22.2
2022-10-19T01:47:45.259Z,22.2
2022-10-19T01:48:01.212Z,22.2
2022-10-19T01:48:16.314Z,22.2
2022-10-19T01:48:32.799Z,22.2
2022-10-19T01:48:48.384Z,22.2
2022-10-19T01:49:05.646Z,22.2
2022-10-19T01:49:21.274Z,22.2
2022-10-19T01:49:37.871Z,22.2
2022-10-19T01:49:53.134Z,22.2
2022-10-19T01:50:09.753Z,22.2
2022-10-19T01:50:25.524Z,22.2
2022-10-19T01:50:43.321Z,22.2
2022-10-19T01:50:57.020Z,22.2
2022-10-19T01:51:12.815Z,22.2
2022-10-19T01:51:29.350Z,22.2
2022-10-19T01:51:48.752Z,22.2
2022-10-19T01:52:00.918Z,22.2
2022-10-19T01:52:16.751Z,22.2
2022-10-19T01:52:33.981Z,22.2
2022-10-19T01:52:48.683Z,22.2
2022-10-19T01:53:07.420Z,22.2
2022-10-19T01:53:21.509Z,22.2
2022-10-19T01:53:37.483Z,22.2
2022-10-19T01:53:53.483Z,22.2
2022-10-19T01:54:08.655Z,22.2
2022-10-19T01:54:27.057Z,22.2
2022-10-19T01:54:40.473Z,22.2
2022-10-19T01:54:57.249Z,22.2
2022-10-19T01:55:12.600Z,22.19
2022-10-19T01:55:31.044Z,22.19
2022-10-19T01:55:44.710Z,22.2
2022-10-19T01:56:01.936Z,22.2
2022-10-19T01:56:17.314Z,22.19
2022-10-19T01:56:33.053Z,22.2
2022-10-19T01:56:49.207Z,22.19
2022-10-19T01:57:04.877Z,22.19
2022-10-19T01:57:21.113Z,22.19
2022-10-19T01:57:36.716Z,22.19
2022-10-19T01:57:53.492Z,22.19
2022-10-19T01:58:09.667Z,22.19
2022-10-19T01:58:25.703Z,22.19
2022-10-19T01:58:42.114Z,22.19
2022-10-19T01:58:57.021Z,22.18
2022-10-19T01:59:13.647Z,22.18
2022-10-19T01:59:29.719Z,22.19
2022-10-19T01:59:46.365Z,22.18
2022-10-19T02:00:04.731Z,22.18
2022-10-19T02:00:17.232Z,22.18
2022-10-19T02:00:32.958Z,22.18
2022-10-19T02:00:51.400Z,22.18
2022-10-19T02:01:05.440Z,22.18
2022-10-19T02:01:21.504Z,22.18
2022-10-19T02:01:37.525Z,22.18
2022-10-19T02:01:54.268Z,22.18
2022-10-19T02:02:11.252Z,22.18
2022-10-19T02:02:24.378Z,22.18
2022-10-19T02:02:41.138Z,22.18
2022-10-19T02:02:57.059Z,22.18
2022-10-19T02:03:14.870Z,22.18
2022-10-19T02:03:28.472Z,22.18
2022-10-19T02:03:45.993Z,22.18
2022-10-19T02:04:00.688Z,22.18
2022-10-19T02:04:16.885Z,22.18
2022-10-19T02:04:32.975Z,22.18
2022-10-19T02:04:48.187Z,22.18
2022-10-19T02:05:05.203Z,22.18
2022-10-19T02:05:20.222Z,22.18
2022-10-19T02:05:38.828Z,22.18
2022-10-19T02:05:53.983Z,22.18
2022-10-19T02:06:10.593Z,22.18
2022-10-19T02:06:25.281Z,22.18
2022-10-19T02:06:43.175Z,22.18
2022-10-19T02:06:57.169Z,22.18
2022-10-19T02:07:12.224Z,22.18
2022-10-19T02:07:28.807Z,22.18
2022-10-19T02:07:44.981Z,22.18
2022-10-19T02:08:01.686Z,22.18
2022-10-19T02:08:16.450Z,22.18
2022-10-19T02:08:33.774Z,22.17
2022-10-19T02:08:48.691Z,22.17
2022-10-19T02:09:06.514Z,22.17
2022-10-19T02:09:21.260Z,22.17
2022-10-19T02:09:38.904Z,22.17
2022-10-19T02:09:54.503Z,22.17
2022-10-19T02:10:08.489Z,22.17
2022-10-19T02:10:26.848Z,22.17
2022-10-19T02:10:41.583Z,22.17
2022-10-19T02:11:01.173Z,22.17
2022-10-19T02:11:14.013Z,22.17
2022-10-19T02:11:29.675Z,22.17
2022-10-19T02:11:47.960Z,22.17
2022-10-19T02:12:05.277Z,22.17
2022-10-19T02:12:18.492Z,22.16
2022-10-19T02:12:32.440Z,22.16
2022-10-19T02:12:48.772Z,22.16
2022-10-19T02:13:04.768Z,22.16
2022-10-19T02:13:20.830Z,22.16
2022-10-19T02:13:36.482Z,22.16
2022-10-19T02:13:55.751Z,22.16
2022-10-19T02:14:10.401Z,22.16
2022-10-19T02:14:28.458Z,22.16
2022-10-19T02:14:40.631Z,22.16
2022-10-19T02:14:57.878Z,22.16
2022-10-19T02:15:14.478Z,22.16
2022-10-19T02:15:28.335Z,22.16
2022-10-19T02:15:45.429Z,22.16
2022-10-19T02:16:00.512Z,22.16
2022-10-19T02:16:16.943Z,22.16
2022-10-19T02:16:34.067Z,22.16
2022-10-19T02:16:49.616Z,22.16
2022-10-19T02:17:04.415Z,22.16
2022-10-19T02:17:21.744Z,22.16
2022-10-19T02:17:36.814Z,22.16
2022-10-19T02:17:54.648Z,22.16
2022-10-19T02:18:08.580Z,22.16
2022-10-19T02:18:24.937Z,22.16
2022-10-19T02:18:42.437Z,22.16
2022-10-19T02:18:56.508Z,22.16
2022-10-19T02:19:13.239Z,22.16
2022-10-19T02:19:28.939Z,22.16
2022-10-19T02:19:45.799Z,22.16
2022-10-19T02:20:00.543Z,22.16
2022-10-19T02:20:17.751Z,22.16
2022-10-19T02:20:48.323Z,22.16
2022-10-19T02:21:05.557Z,22.16
2022-10-19T02:21:20.785Z,22.16
2022-10-19T02:21:37.361Z,22.15
2022-10-19T02:21:53.093Z,22.15
2022-10-19T02:22:09.733Z,22.16
2022-10-19T02:22:24.631Z,22.16
2022-10-19T02:22:41.927Z,22.16
2022-10-19T02:22:58.328Z,22.15
2022-10-19T02:23:12.468Z,22.15
2022-10-19T02:23:29.265Z,22.15
2022-10-19T02:23:49.305Z,22.15
2022-10-19T02:24:02.383Z,22.15
2022-10-19T02:24:17.921Z,22.15
2022-10-19T02:24:34.480Z,22.15
2022-10-19T02:24:48.555Z,22.15
2022-10-19T02:25:05.700Z,22.15
2022-10-19T02:25:21.147Z,22.15
2022-10-19T02:25:37.570Z,22.15
2022-10-19T02:25:54.285Z,22.15
2022-10-19T02:26:08.839Z,22.15
2022-10-19T02:26:25.299Z,22.14
2022-10-19T02:26:41.310Z,22.15
2022-10-19T02:27:12.402Z,22.14
2022-10-19T02:27:30.851Z,22.14
2022-10-19T02:27:46.190Z,22.14
2022-10-19T02:28:01.788Z,22.14
2022-10-19T02:28:17.203Z,22.14
2022-10-19T02:28:33.810Z,22.14
2022-10-19T02:28:49.090Z,22.14
2022-10-19T02:29:04.777Z,22.14
2022-10-19T02:29:23.192Z,22.14
2022-10-19T02:29:38.188Z,22.14
2022-10-19T02:29:53.285Z,22.14
2022-10-19T02:30:09.733Z,22.14
2022-10-19T02:30:26.503Z,22.14
2022-10-19T02:30:41.102Z,22.14
2022-10-19T02:30:57.266Z,22.14
2022-10-19T02:31:13.164Z,22.14
2022-10-19T02:31:29.762Z,22.14
2022-10-19T02:31:45.331Z,22.14
2022-10-19T02:32:00.836Z,22.14
2022-10-19T02:32:17.070Z,22.14
2022-10-19T02:32:32.471Z,22.14
2022-10-19T02:32:49.484Z,22.14
2022-10-19T02:33:07.074Z,22.14
2022-10-19T02:33:21.074Z,22.14
2022-10-19T02:33:38.419Z,22.14
2022-10-19T02:33:53.634Z,22.14
2022-10-19T02:34:24.400Z,22.14
2022-10-19T02:34:42.071Z,22.14
2022-10-19T02:34:56.732Z,22.14
2022-10-19T02:35:12.747Z,22.13
2022-10-19T02:35:28.900Z,22.14
2022-10-19T02:35:45.719Z,22.13
2022-10-19T02:36:01.962Z,22.13
2022-10-19T02:36:17.869Z,22.13
2022-10-19T02:36:33.300Z,22.13
2022-10-19T02:36:51.146Z,22.13
2022-10-19T02:37:05.134Z,22.13
2022-10-19T02:37:23.357Z,22.13
2022-10-19T02:37:38.803Z,22.13
2022-10-19T02:37:52.883Z,22.13
2022-10-19T02:38:09.464Z,22.13
2022-10-19T02:38:24.564Z,22.13
2022-10-19T02:38:45.079Z,22.13
2022-10-19T02:38:57.724Z,22.13
2022-10-19T02:39:14.805Z,22.13
2022-10-19T02:39:29.227Z,22.13
2022-10-19T02:39:46.845Z,22.13
2022-10-19T02:40:00.891Z,22.13
2022-10-19T02:40:18.009Z,22.13
2022-10-19T02:40:34.042Z,22.13
2022-10-19T02:40:49.023Z,22.13
2022-10-19T02:41:06.302Z,22.13
2022-10-19T02:41:21.025Z,22.13
2022-10-19T02:41:39.102Z,22.13
2022-10-19T02:41:52.993Z,22.13
2022-10-19T02:42:11.640Z,22.13
2022-10-19T02:42:26.747Z,22.13
2022-10-19T02:42:40.381Z,22.13
2022-10-19T02:42:56.802Z,22.13
2022-10-19T02:43:12.419Z,22.12
2022-10-19T02:43:29.063Z,22.12
2022-10-19T02:43:44.748Z,22.12
2022-10-19T02:44:01.481Z,22.12
2022-10-19T02:44:16.765Z,22.12
2022-10-19T02:44:35.026Z,22.12
2022-10-19T02:44:49.178Z,22.12
2022-10-19T02:45:04.607Z,22.12
2022-10-19T02:45:20.731Z,22.11
2022-10-19T02:45:37.355Z,22.12
2022-10-19T02:45:53.534Z,22.12
2022-10-19T02:46:09.636Z,22.11
2022-10-19T02:46:26.034Z,22.11
2022-10-19T02:46:43.392Z,22.11
2022-10-19T02:46:57.469Z,22.11
2022-10-19T02:47:13.039Z,22.11
2022-10-19T02:47:29.704Z,22.11
2022-10-19T02:47:46.165Z,22.11
2022-10-19T02:48:01.888Z,22.11
2022-10-19T02:48:17.175Z,22.11
2022-10-19T02:48:32.121Z,22.11
2022-10-19T02:48:48.896Z,22.11
2022-10-19T02:49:05.635Z,22.11
2022-10-19T02:49:22.132Z,22.11
2022-10-19T02:49:36.523Z,22.11
2022-10-19T02:49:53.399Z,22.11
2022-10-19T02:50:08.621Z,22.11
2022-10-19T02:50:25.522Z,22.11
2022-10-19T02:50:40.685Z,22.11
2022-10-19T02:50:55.934Z,22.11
2022-10-19T02:51:15.767Z,22.11
2022-10-19T02:51:28.957Z,22.11
2022-10-19T02:51:46.138Z,22.11
2022-10-19T02:52:01.937Z,22.11
2022-10-19T02:52:17.650Z,22.11
2022-10-19T02:52:32.788Z,22.11
2022-10-19T02:52:49.196Z,22.11
2022-10-19T02:53:05.111Z,22.11
2022-10-19T02:53:25.425Z,22.1
2022-10-19T02:53:41.102Z,22.11
2022-10-19T02:53:54.132Z,22.1
2022-10-19T02:54:09.604Z,22.1
2022-10-19T02:54:24.186Z,22.1
2022-10-19T02:54:44.213Z,22.1
2022-10-19T02:54:56.580Z,22.1
2022-10-19T02:55:13.349Z,22.1
2022-10-19T02:55:28.465Z,22.1
2022-10-19T02:55:43.765Z,22.1
2022-10-19T02:56:00.900Z,22.1
2022-10-19T02:56:32.727Z,22.1
2022-10-19T02:56:48.744Z,22.1
2022-10-19T02:57:05.463Z,22.1
2022-10-19T02:57:20.450Z,22.1
2022-10-19T02:57:39.955Z,22.1
2022-10-19T02:57:53.210Z,22.1
2022-10-19T02:58:10.871Z,22.09
2022-10-19T02:58:25.309Z,22.09
2022-10-19T02:58:42.016Z,22.1
2022-10-19T02:58:57.319Z,22.1
2022-10-19T02:59:14.164Z,22.09
2022-10-19T02:59:29.555Z,22.09
2022-10-19T02:59:44.199Z,22.09
2022-10-19T03:00:00.977Z,22.09
2022-10-19T03:00:16.336Z,22.09
2022-10-19T03:00:33.717Z,22.09
2022-10-19T03:00:50.403Z,22.09
2022-10-19T03:01:04.117Z,22.09
2022-10-19T03:01:20.701Z,22.09
2022-10-19T03:01:35.986Z,22.09
2022-10-19T03:01:54.095Z,22.09
2022-10-19T03:02:08.136Z,22.09
2022-10-19T03:02:24.962Z,22.09
2022-10-19T03:02:40.515Z,22.09
2022-10-19T03:02:58.814Z,22.09
2022-10-19T03:03:13.079Z,22.09
2022-10-19T03:03:30.677Z,22.09
2022-10-19T03:03:45.779Z,22.09
2022-10-19T03:04:02.903Z,22.09
2022-10-19T03:04:16.455Z,22.09
2022-10-19T03:04:33.334Z,22.09
2022-10-19T03:04:49.323Z,22.09
2022-10-19T03:05:07.426Z,22.09
2022-10-19T03:05:21.609Z,22.09
2022-10-19T03:05:37.900Z,22.09
2022-10-19T03:05:53.265Z,22.09
2022-10-19T03:06:09.768Z,22.09
2022-10-19T03:06:25.738Z,22.09
2022-10-19T03:06:40.511Z,22.09
2022-10-19T03:06:56.049Z,22.09
2022-10-19T03:07:12.736Z,22.09
2022-10-19T03:07:28.863Z,22.09
2022-10-19T03:07:45.577Z,22.09
2022-10-19T03:08:00.865Z,22.09
2022-10-19T03:08:17.057Z,22.09
2022-10-19T03:08:32.815Z,22.09
2022-10-19T03:08:49.571Z,22.09
2022-10-19T03:09:05.243Z,22.09
2022-10-19T03:09:22.892Z,22.09
2022-10-19T03:09:36.736Z,22.09
2022-10-19T03:09:53.209Z,22.09
2022-10-19T03:10:10.100Z,22.09
2022-10-19T03:10:24.693Z,22.09
2022-10-19T03:10:41.404Z,22.09
2022-10-19T03:10:58.032Z,22.09
2022-10-19T03:11:13.009Z,22.09
2022-10-19T03:11:28.498Z,22.09
2022-10-19T03:11:48.180Z,22.09
2022-10-19T03:12:00.820Z,22.09
2022-10-19T03:12:15.862Z,22.09
2022-10-19T03:12:33.988Z,22.09
2022-10-19T03:12:48.558Z,22.09
2022-10-19T03:13:04.668Z,22.09
2022-10-19T03:13:20.895Z,22.09
2022-10-19T03:13:37.123Z,22.09
2022-10-19T03:13:53.896Z,22.09
2022-10-19T03:14:09.390Z,22.09
2022-10-19T03:14:24.524Z,22.09
2022-10-19T03:14:40.229Z,22.09
2022-10-19T03:14:59.259Z,22.09
2022-10-19T03:15:11.785Z,22.08
2022-10-19T03:15:28.703Z,22.09
2022-10-19T03:15:43.975Z,22.08
2022-10-19T03:16:01.298Z,22.07
2022-10-19T03:16:17.443Z,22.08
2022-10-19T03:16:33.695Z,22.08
2022-10-19T03:16:48.356Z,22.08
2022-10-19T03:17:05.714Z,22.08
2022-10-19T03:17:20.400Z,22.08
2022-10-19T03:17:36.884Z,22.08
2022-10-19T03:17:54.193Z,22.09
2022-10-19T03:18:08.008Z,22.08
2022-10-19T03:18:25.420Z,22.08
2022-10-19T03:18:40.473Z,22.08
2022-10-19T03:18:56.759Z,22.08
2022-10-19T03:19:12.281Z,22.08
2022-10-19T03:19:29.563Z,22.08
2022-10-19T03:19:45.024Z,22.08
2022-10-19T03:20:01.637Z,22.08
2022-10-19T03:20:16.757Z,22.08
2022-10-19T03:20:32.486Z,22.08
2022-10-19T03:20:48.724Z,22.08
2022-10-19T03:21:03.863Z,22.07
2022-10-19T03:21:20.919Z,22.07
2022-10-19T03:21:36.569Z,22.07
2022-10-19T03:21:53.318Z,22.08
2022-10-19T03:22:08.232Z,22.08
2022-10-19T03:22:25.265Z,22.08
2022-10-19T03:22:43.669Z,22.08
2022-10-19T03:22:56.616Z,22.08
2022-10-19T03:23:13.130Z,22.08
2022-10-19T03:23:27.893Z,22.08
2022-10-19T03:23:45.155Z,22.07
2022-10-19T03:24:02.884Z,22.08
2022-10-19T03:24:17.168Z,22.08
2022-10-19T03:24:34.089Z,22.08
2022-10-19T03:24:48.756Z,22.07
2022-10-19T03:25:04.951Z,22.07
2022-10-19T03:25:21.138Z,22.07
2022-10-19T03:25:36.931Z,22.07
2022-10-19T03:25:54.476Z,22.07
2022-10-19T03:26:11.511Z,22.07
2022-10-19T03:26:24.253Z,22.07
2022-10-19T03:26:40.588Z,22.07
2022-10-19T03:26:57.237Z,22.07
2022-10-19T03:27:13.058Z,22.07
2022-10-19T03:27:28.124Z,22.07
2022-10-19T03:27:44.904Z,22.07
2022-10-19T03:28:00.588Z,22.07
2022-10-19T03:28:15.995Z,22.07